sensor_id;sensor_type;location;lat;lon;timestamp;temperature;humidity
10692;DHT22;5396;50.950;6.988;2023-05-07T00:00:35;14.30;99.90
10692;DHT22;5396;50.950;6.988;2023-05-07T00:03:01;14.30;99.90
10692;DHT22;5396;50.950;6.988;2023-05-07T00:05:27;14.30;99.90
10692;DHT22;5396;50.950;6.988;2023-05-07T00:07:52;14.30;99.90
10692;DHT22;5396;50.950;6.988;2023-05-07T00:10:18;14.30;99.90
10692;DHT22;5396;50.950;6.988;2023-05-07T00:12:44;14.30;99.90
10692;DHT22;5396;50.950;6.988;2023-05-07T00:15:10;14.40;99.90
10692;DHT22;5396;50.950;6.988;2023-05-07T00:17:36;14.30;99.90
10692;DHT22;5396;50.950;6.988;2023-05-07T00:20:03;14.30;99.90
10692;DHT22;5396;50.950;6.988;2023-05-07T00:22:30;14.30;99.90
10692;DHT22;5396;50.950;6.988;2023-05-07T00:24:56;14.30;99.90
10692;DHT22;5396;50.950;6.988;2023-05-07T00:27:22;14.30;99.90
10692;DHT22;5396;50.950;6.988;2023-05-07T00:29:48;14.30;99.90
10692;DHT22;5396;50.950;6.988;2023-05-07T00:32:13;14.30;99.90
10692;DHT22;5396;50.950;6.988;2023-05-07T00:34:39;14.30;99.90
10692;DHT22;5396;50.950;6.988;2023-05-07T00:37:05;14.30;99.90
10692;DHT22;5396;50.950;6.988;2023-05-07T00:39:33;14.20;99.90
10692;DHT22;5396;50.950;6.988;2023-05-07T00:41:58;14.30;99.90
10692;DHT22;5396;50.950;6.988;2023-05-07T00:44:24;14.20;99.90
10692;DHT22;5396;50.950;6.988;2023-05-07T00:46:50;14.30;99.90
10692;DHT22;5396;50.950;6.988;2023-05-07T00:49:16;14.20;99.90
10692;DHT22;5396;50.950;6.988;2023-05-07T00:51:43;14.20;99.90
10692;DHT22;5396;50.950;6.988;2023-05-07T00:54:09;14.30;99.90
10692;DHT22;5396;50.950;6.988;2023-05-07T00:56:34;14.20;99.90
10692;DHT22;5396;50.950;6.988;2023-05-07T00:59:04;14.20;99.90
10692;DHT22;5396;50.950;6.988;2023-05-07T01:01:29;14.30;99.90
10692;DHT22;5396;50.950;6.988;2023-05-07T01:03:56;14.30;99.90
10692;DHT22;5396;50.950;6.988;2023-05-07T01:06:23;14.30;99.90
10692;DHT22;5396;50.950;6.988;2023-05-07T01:08:50;14.30;99.90
10692;DHT22;5396;50.950;6.988;2023-05-07T01:11:18;14.30;99.90
10692;DHT22;5396;50.950;6.988;2023-05-07T01:13:46;14.30;99.90
10692;DHT22;5396;50.950;6.988;2023-05-07T01:16:12;14.30;99.90
10692;DHT22;5396;50.950;6.988;2023-05-07T01:18:37;14.30;99.90
10692;DHT22;5396;50.950;6.988;2023-05-07T01:21:04;14.30;99.90
10692;DHT22;5396;50.950;6.988;2023-05-07T01:23:30;14.20;99.90
10692;DHT22;5396;50.950;6.988;2023-05-07T01:25:56;14.20;99.90
10692;DHT22;5396;50.950;6.988;2023-05-07T01:28:22;14.20;99.90
10692;DHT22;5396;50.950;6.988;2023-05-07T01:30:53;14.20;99.90
10692;DHT22;5396;50.950;6.988;2023-05-07T01:33:20;14.20;99.90
10692;DHT22;5396;50.950;6.988;2023-05-07T01:35:52;14.20;99.90
10692;DHT22;5396;50.950;6.988;2023-05-07T01:38:19;14.20;99.90
10692;DHT22;5396;50.950;6.988;2023-05-07T01:40:46;14.20;99.90
10692;DHT22;5396;50.950;6.988;2023-05-07T01:43:12;14.20;99.90
10692;DHT22;5396;50.950;6.988;2023-05-07T01:45:38;14.20;99.90
10692;DHT22;5396;50.950;6.988;2023-05-07T01:48:06;14.20;99.90
10692;DHT22;5396;50.950;6.988;2023-05-07T01:50:32;14.20;99.90
10692;DHT22;5396;50.950;6.988;2023-05-07T01:52:58;14.20;99.90
10692;DHT22;5396;50.950;6.988;2023-05-07T01:55:24;14.20;99.90
10692;DHT22;5396;50.950;6.988;2023-05-07T01:57:50;14.20;99.90
10692;DHT22;5396;50.950;6.988;2023-05-07T02:00:16;14.20;99.90
10692;DHT22;5396;50.950;6.988;2023-05-07T02:02:43;14.10;99.90
10692;DHT22;5396;50.950;6.988;2023-05-07T02:05:08;14.10;99.90
10692;DHT22;5396;50.950;6.988;2023-05-07T02:07:34;14.00;99.90
10692;DHT22;5396;50.950;6.988;2023-05-07T02:10:00;14.00;99.90
10692;DHT22;5396;50.950;6.988;2023-05-07T02:12:26;13.90;99.90
10692;DHT22;5396;50.950;6.988;2023-05-07T02:14:51;13.90;99.90
10692;DHT22;5396;50.950;6.988;2023-05-07T02:17:17;13.90;99.90
10692;DHT22;5396;50.950;6.988;2023-05-07T02:19:42;13.90;99.90
10692;DHT22;5396;50.950;6.988;2023-05-07T02:22:09;13.80;99.90
10692;DHT22;5396;50.950;6.988;2023-05-07T02:24:35;13.80;99.90
10692;DHT22;5396;50.950;6.988;2023-05-07T02:27:00;13.70;99.90
10692;DHT22;5396;50.950;6.988;2023-05-07T02:29:27;13.70;99.90
10692;DHT22;5396;50.950;6.988;2023-05-07T02:31:53;13.70;99.90
10692;DHT22;5396;50.950;6.988;2023-05-07T02:34:19;13.60;99.90
10692;DHT22;5396;50.950;6.988;2023-05-07T02:36:45;13.60;99.90
10692;DHT22;5396;50.950;6.988;2023-05-07T02:39:12;13.60;99.90
10692;DHT22;5396;50.950;6.988;2023-05-07T02:41:37;13.60;99.90
10692;DHT22;5396;50.950;6.988;2023-05-07T02:44:03;13.60;99.90
10692;DHT22;5396;50.950;6.988;2023-05-07T02:46:29;13.60;99.90
10692;DHT22;5396;50.950;6.988;2023-05-07T02:48:55;13.60;99.90
10692;DHT22;5396;50.950;6.988;2023-05-07T02:51:21;13.60;99.90
10692;DHT22;5396;50.950;6.988;2023-05-07T02:53:47;13.60;99.90
10692;DHT22;5396;50.950;6.988;2023-05-07T02:56:13;13.50;99.90
10692;DHT22;5396;50.950;6.988;2023-05-07T02:58:38;13.60;99.90
10692;DHT22;5396;50.950;6.988;2023-05-07T03:01:10;13.60;99.90
10692;DHT22;5396;50.950;6.988;2023-05-07T03:03:36;13.60;99.90
10692;DHT22;5396;50.950;6.988;2023-05-07T03:06:01;13.60;99.90
10692;DHT22;5396;50.950;6.988;2023-05-07T03:08:27;13.60;99.90
10692;DHT22;5396;50.950;6.988;2023-05-07T03:10:53;13.60;99.90
10692;DHT22;5396;50.950;6.988;2023-05-07T03:13:18;13.60;99.90
10692;DHT22;5396;50.950;6.988;2023-05-07T03:15:44;13.70;99.90
10692;DHT22;5396;50.950;6.988;2023-05-07T03:18:10;13.70;99.90
10692;DHT22;5396;50.950;6.988;2023-05-07T03:20:36;13.60;99.90
10692;DHT22;5396;50.950;6.988;2023-05-07T03:23:02;13.70;99.90
10692;DHT22;5396;50.950;6.988;2023-05-07T03:25:28;13.70;99.90
10692;DHT22;5396;50.950;6.988;2023-05-07T03:27:55;13.60;99.90
10692;DHT22;5396;50.950;6.988;2023-05-07T03:30:21;13.60;99.90
10692;DHT22;5396;50.950;6.988;2023-05-07T03:32:47;13.50;99.90
10692;DHT22;5396;50.950;6.988;2023-05-07T03:35:12;13.50;99.90
10692;DHT22;5396;50.950;6.988;2023-05-07T03:37:38;13.40;99.90
10692;DHT22;5396;50.950;6.988;2023-05-07T03:40:05;13.40;99.90
10692;DHT22;5396;50.950;6.988;2023-05-07T03:42:30;13.40;99.90
10692;DHT22;5396;50.950;6.988;2023-05-07T03:44:56;13.40;99.90
10692;DHT22;5396;50.950;6.988;2023-05-07T03:47:22;13.30;99.90
10692;DHT22;5396;50.950;6.988;2023-05-07T03:49:47;13.30;99.90
10692;DHT22;5396;50.950;6.988;2023-05-07T03:52:14;13.40;99.90
10692;DHT22;5396;50.950;6.988;2023-05-07T03:54:40;13.40;99.90
10692;DHT22;5396;50.950;6.988;2023-05-07T03:57:05;13.40;99.90
10692;DHT22;5396;50.950;6.988;2023-05-07T03:59:31;13.40;99.90
10692;DHT22;5396;50.950;6.988;2023-05-07T04:01:56;13.40;99.90
10692;DHT22;5396;50.950;6.988;2023-05-07T04:04:22;13.40;99.90
10692;DHT22;5396;50.950;6.988;2023-05-07T04:06:48;13.40;99.90
10692;DHT22;5396;50.950;6.988;2023-05-07T04:09:13;13.40;99.90
10692;DHT22;5396;50.950;6.988;2023-05-07T04:11:39;13.30;99.90
10692;DHT22;5396;50.950;6.988;2023-05-07T04:14:08;13.40;99.90
10692;DHT22;5396;50.950;6.988;2023-05-07T04:16:34;13.40;99.90
10692;DHT22;5396;50.950;6.988;2023-05-07T04:19:00;13.40;99.90
10692;DHT22;5396;50.950;6.988;2023-05-07T04:21:26;13.50;99.90
10692;DHT22;5396;50.950;6.988;2023-05-07T04:23:51;13.50;99.90
10692;DHT22;5396;50.950;6.988;2023-05-07T04:26:17;13.60;99.90
10692;DHT22;5396;50.950;6.988;2023-05-07T04:28:43;13.60;99.90
10692;DHT22;5396;50.950;6.988;2023-05-07T04:31:09;13.70;99.90
10692;DHT22;5396;50.950;6.988;2023-05-07T04:33:35;13.70;99.90
10692;DHT22;5396;50.950;6.988;2023-05-07T04:36:02;13.70;99.90
10692;DHT22;5396;50.950;6.988;2023-05-07T04:38:31;13.80;99.90
10692;DHT22;5396;50.950;6.988;2023-05-07T04:40:58;13.90;99.90
10692;DHT22;5396;50.950;6.988;2023-05-07T04:43:27;13.90;99.90
10692;DHT22;5396;50.950;6.988;2023-05-07T04:45:53;13.90;99.90
10692;DHT22;5396;50.950;6.988;2023-05-07T04:48:18;14.00;99.90
10692;DHT22;5396;50.950;6.988;2023-05-07T04:50:49;14.00;99.90
10692;DHT22;5396;50.950;6.988;2023-05-07T04:53:15;14.00;99.90
10692;DHT22;5396;50.950;6.988;2023-05-07T04:55:41;14.10;99.90
10692;DHT22;5396;50.950;6.988;2023-05-07T04:58:07;14.10;99.90
10692;DHT22;5396;50.950;6.988;2023-05-07T05:00:32;14.20;99.90
10692;DHT22;5396;50.950;6.988;2023-05-07T05:02:58;14.20;99.90
10692;DHT22;5396;50.950;6.988;2023-05-07T05:05:24;14.30;99.90
10692;DHT22;5396;50.950;6.988;2023-05-07T05:07:51;14.30;99.90
10692;DHT22;5396;50.950;6.988;2023-05-07T05:10:17;14.30;99.90
10692;DHT22;5396;50.950;6.988;2023-05-07T05:12:43;14.30;99.90
10692;DHT22;5396;50.950;6.988;2023-05-07T05:15:11;14.30;99.90
10692;DHT22;5396;50.950;6.988;2023-05-07T05:17:37;14.40;99.90
10692;DHT22;5396;50.950;6.988;2023-05-07T05:20:03;14.40;99.90
10692;DHT22;5396;50.950;6.988;2023-05-07T05:22:29;14.50;99.90
10692;DHT22;5396;50.950;6.988;2023-05-07T05:24:56;14.50;99.90
10692;DHT22;5396;50.950;6.988;2023-05-07T05:27:22;14.50;99.90
10692;DHT22;5396;50.950;6.988;2023-05-07T05:29:47;14.60;99.90
10692;DHT22;5396;50.950;6.988;2023-05-07T05:32:13;14.70;99.90
10692;DHT22;5396;50.950;6.988;2023-05-07T05:34:38;14.70;99.90
10692;DHT22;5396;50.950;6.988;2023-05-07T05:37:04;14.70;99.90
10692;DHT22;5396;50.950;6.988;2023-05-07T05:39:29;14.80;99.90
10692;DHT22;5396;50.950;6.988;2023-05-07T05:41:56;14.80;99.90
10692;DHT22;5396;50.950;6.988;2023-05-07T05:44:21;14.90;99.90
10692;DHT22;5396;50.950;6.988;2023-05-07T05:46:47;14.90;99.90
10692;DHT22;5396;50.950;6.988;2023-05-07T05:49:12;15.00;99.90
10692;DHT22;5396;50.950;6.988;2023-05-07T05:51:38;15.00;99.90
10692;DHT22;5396;50.950;6.988;2023-05-07T05:54:03;15.10;99.90
10692;DHT22;5396;50.950;6.988;2023-05-07T05:56:29;15.10;99.90
10692;DHT22;5396;50.950;6.988;2023-05-07T05:58:55;15.20;99.90
10692;DHT22;5396;50.950;6.988;2023-05-07T06:01:21;15.20;99.90
10692;DHT22;5396;50.950;6.988;2023-05-07T06:03:46;15.30;99.90
10692;DHT22;5396;50.950;6.988;2023-05-07T06:06:12;15.40;99.90
10692;DHT22;5396;50.950;6.988;2023-05-07T06:08:37;15.50;99.90
10692;DHT22;5396;50.950;6.988;2023-05-07T06:11:03;15.60;99.90
10692;DHT22;5396;50.950;6.988;2023-05-07T06:13:29;15.60;99.90
10692;DHT22;5396;50.950;6.988;2023-05-07T06:15:54;15.70;99.90
10692;DHT22;5396;50.950;6.988;2023-05-07T06:18:20;15.80;99.90
10692;DHT22;5396;50.950;6.988;2023-05-07T06:20:45;15.90;99.90
10692;DHT22;5396;50.950;6.988;2023-05-07T06:23:11;16.00;99.90
10692;DHT22;5396;50.950;6.988;2023-05-07T06:25:36;16.10;99.90
10692;DHT22;5396;50.950;6.988;2023-05-07T06:28:02;16.20;99.90
10692;DHT22;5396;50.950;6.988;2023-05-07T06:30:28;16.30;99.90
10692;DHT22;5396;50.950;6.988;2023-05-07T06:32:53;16.30;99.90
10692;DHT22;5396;50.950;6.988;2023-05-07T06:35:19;16.30;99.90
10692;DHT22;5396;50.950;6.988;2023-05-07T06:37:46;16.30;99.90
10692;DHT22;5396;50.950;6.988;2023-05-07T06:40:11;16.40;99.90
10692;DHT22;5396;50.950;6.988;2023-05-07T06:42:37;16.50;99.90
10692;DHT22;5396;50.950;6.988;2023-05-07T06:45:03;16.50;99.90
10692;DHT22;5396;50.950;6.988;2023-05-07T06:47:29;16.60;99.90
10692;DHT22;5396;50.950;6.988;2023-05-07T06:49:55;16.70;99.90
10692;DHT22;5396;50.950;6.988;2023-05-07T06:52:20;16.80;99.90
10692;DHT22;5396;50.950;6.988;2023-05-07T06:54:46;16.90;99.90
10692;DHT22;5396;50.950;6.988;2023-05-07T06:57:12;16.90;99.90
10692;DHT22;5396;50.950;6.988;2023-05-07T06:59:37;17.00;99.90
10692;DHT22;5396;50.950;6.988;2023-05-07T07:02:03;17.00;99.90
10692;DHT22;5396;50.950;6.988;2023-05-07T07:04:28;17.10;99.90
10692;DHT22;5396;50.950;6.988;2023-05-07T07:06:54;17.10;99.90
10692;DHT22;5396;50.950;6.988;2023-05-07T07:09:20;17.10;99.90
10692;DHT22;5396;50.950;6.988;2023-05-07T07:11:46;17.20;99.90
10692;DHT22;5396;50.950;6.988;2023-05-07T07:14:11;17.20;99.90
10692;DHT22;5396;50.950;6.988;2023-05-07T07:16:37;17.20;99.90
10692;DHT22;5396;50.950;6.988;2023-05-07T07:19:02;17.20;99.90
10692;DHT22;5396;50.950;6.988;2023-05-07T07:21:28;17.20;99.90
10692;DHT22;5396;50.950;6.988;2023-05-07T07:23:53;17.30;99.90
10692;DHT22;5396;50.950;6.988;2023-05-07T07:26:19;17.30;99.90
10692;DHT22;5396;50.950;6.988;2023-05-07T07:28:45;17.40;99.90
10692;DHT22;5396;50.950;6.988;2023-05-07T07:31:11;17.50;99.90
10692;DHT22;5396;50.950;6.988;2023-05-07T07:33:37;17.60;99.90
10692;DHT22;5396;50.950;6.988;2023-05-07T07:36:05;17.70;99.90
10692;DHT22;5396;50.950;6.988;2023-05-07T07:38:32;17.80;99.90
10692;DHT22;5396;50.950;6.988;2023-05-07T07:40:58;17.90;99.90
10692;DHT22;5396;50.950;6.988;2023-05-07T07:43:24;18.00;99.90
10692;DHT22;5396;50.950;6.988;2023-05-07T07:45:49;18.10;99.90
10692;DHT22;5396;50.950;6.988;2023-05-07T07:48:16;18.10;99.90
10692;DHT22;5396;50.950;6.988;2023-05-07T07:50:42;18.20;99.90
10692;DHT22;5396;50.950;6.988;2023-05-07T07:53:08;18.20;99.90
10692;DHT22;5396;50.950;6.988;2023-05-07T07:55:39;18.30;99.90
10692;DHT22;5396;50.950;6.988;2023-05-07T07:58:05;18.40;99.90
10692;DHT22;5396;50.950;6.988;2023-05-07T08:00:32;18.50;99.90
10692;DHT22;5396;50.950;6.988;2023-05-07T08:02:57;18.80;99.90
10692;DHT22;5396;50.950;6.988;2023-05-07T08:05:24;18.90;99.90
10692;DHT22;5396;50.950;6.988;2023-05-07T08:07:50;19.00;99.90
10692;DHT22;5396;50.950;6.988;2023-05-07T08:10:18;19.00;99.90
10692;DHT22;5396;50.950;6.988;2023-05-07T08:12:50;19.10;99.90
10692;DHT22;5396;50.950;6.988;2023-05-07T08:15:16;19.20;99.90
10692;DHT22;5396;50.950;6.988;2023-05-07T08:17:43;19.30;99.90
10692;DHT22;5396;50.950;6.988;2023-05-07T08:20:09;19.50;99.90
10692;DHT22;5396;50.950;6.988;2023-05-07T08:22:35;19.60;99.90
10692;DHT22;5396;50.950;6.988;2023-05-07T08:25:01;19.70;99.90
10692;DHT22;5396;50.950;6.988;2023-05-07T08:27:27;19.70;99.90
10692;DHT22;5396;50.950;6.988;2023-05-07T08:29:53;19.80;99.90
10692;DHT22;5396;50.950;6.988;2023-05-07T08:32:18;19.90;99.90
10692;DHT22;5396;50.950;6.988;2023-05-07T08:34:44;19.70;99.90
10692;DHT22;5396;50.950;6.988;2023-05-07T08:37:10;19.70;99.90
10692;DHT22;5396;50.950;6.988;2023-05-07T08:39:35;19.70;99.90
10692;DHT22;5396;50.950;6.988;2023-05-07T08:42:01;19.70;99.90
10692;DHT22;5396;50.950;6.988;2023-05-07T08:44:33;19.70;99.90
10692;DHT22;5396;50.950;6.988;2023-05-07T08:47:01;19.80;99.90
10692;DHT22;5396;50.950;6.988;2023-05-07T08:49:27;19.90;99.90
10692;DHT22;5396;50.950;6.988;2023-05-07T08:51:53;19.90;99.90
10692;DHT22;5396;50.950;6.988;2023-05-07T08:54:20;19.90;99.90
10692;DHT22;5396;50.950;6.988;2023-05-07T08:56:46;19.90;99.90
10692;DHT22;5396;50.950;6.988;2023-05-07T08:59:12;20.10;99.90
10692;DHT22;5396;50.950;6.988;2023-05-07T09:01:37;20.10;99.90
10692;DHT22;5396;50.950;6.988;2023-05-07T09:04:04;20.10;99.90
10692;DHT22;5396;50.950;6.988;2023-05-07T09:06:31;20.20;99.90
10692;DHT22;5396;50.950;6.988;2023-05-07T09:08:56;20.20;99.90
10692;DHT22;5396;50.950;6.988;2023-05-07T09:11:24;20.40;99.90
10692;DHT22;5396;50.950;6.988;2023-05-07T09:13:57;20.40;99.90
10692;DHT22;5396;50.950;6.988;2023-05-07T09:16:42;20.50;99.90
10692;DHT22;5396;50.950;6.988;2023-05-07T09:19:08;20.60;99.90
10692;DHT22;5396;50.950;6.988;2023-05-07T09:21:33;20.60;99.90
10692;DHT22;5396;50.950;6.988;2023-05-07T09:23:59;20.60;99.90
10692;DHT22;5396;50.950;6.988;2023-05-07T09:26:25;20.60;99.90
10692;DHT22;5396;50.950;6.988;2023-05-07T09:28:51;20.70;99.90
10692;DHT22;5396;50.950;6.988;2023-05-07T09:31:17;20.70;99.90
10692;DHT22;5396;50.950;6.988;2023-05-07T09:33:43;20.80;99.90
10692;DHT22;5396;50.950;6.988;2023-05-07T09:36:09;20.90;99.90
10692;DHT22;5396;50.950;6.988;2023-05-07T09:38:37;20.90;99.90
10692;DHT22;5396;50.950;6.988;2023-05-07T09:41:08;20.90;99.90
10692;DHT22;5396;50.950;6.988;2023-05-07T09:43:36;21.00;99.90
10692;DHT22;5396;50.950;6.988;2023-05-07T09:46:15;21.00;99.90
10692;DHT22;5396;50.950;6.988;2023-05-07T09:48:43;21.10;99.90
10692;DHT22;5396;50.950;6.988;2023-05-07T09:51:43;21.20;99.90
10692;DHT22;5396;50.950;6.988;2023-05-07T09:54:11;21.20;99.90
10692;DHT22;5396;50.950;6.988;2023-05-07T09:56:37;21.30;99.90
10692;DHT22;5396;50.950;6.988;2023-05-07T09:59:07;21.30;99.90
10692;DHT22;5396;50.950;6.988;2023-05-07T10:01:36;21.30;99.90
10692;DHT22;5396;50.950;6.988;2023-05-07T10:04:02;21.40;99.90
10692;DHT22;5396;50.950;6.988;2023-05-07T10:06:34;21.50;99.90
10692;DHT22;5396;50.950;6.988;2023-05-07T10:09:00;21.60;99.90
10692;DHT22;5396;50.950;6.988;2023-05-07T10:11:26;21.60;99.90
10692;DHT22;5396;50.950;6.988;2023-05-07T10:13:53;21.50;99.90
10692;DHT22;5396;50.950;6.988;2023-05-07T10:16:19;21.40;99.90
10692;DHT22;5396;50.950;6.988;2023-05-07T10:18:46;21.50;99.90
10692;DHT22;5396;50.950;6.988;2023-05-07T10:21:18;21.60;99.90
10692;DHT22;5396;50.950;6.988;2023-05-07T10:23:46;21.70;99.90
10692;DHT22;5396;50.950;6.988;2023-05-07T10:26:14;21.80;99.90
10692;DHT22;5396;50.950;6.988;2023-05-07T10:28:43;22.00;99.90
10692;DHT22;5396;50.950;6.988;2023-05-07T10:31:26;22.10;99.90
10692;DHT22;5396;50.950;6.988;2023-05-07T10:33:59;22.40;99.90
10692;DHT22;5396;50.950;6.988;2023-05-07T10:36:26;22.40;99.90
10692;DHT22;5396;50.950;6.988;2023-05-07T10:38:53;22.40;99.90
10692;DHT22;5396;50.950;6.988;2023-05-07T10:41:19;22.50;99.90
10692;DHT22;5396;50.950;6.988;2023-05-07T10:43:46;22.50;99.90
10692;DHT22;5396;50.950;6.988;2023-05-07T10:46:22;22.50;99.90
10692;DHT22;5396;50.950;6.988;2023-05-07T10:51:30;22.60;99.90
10692;DHT22;5396;50.950;6.988;2023-05-07T10:56:41;22.80;99.90
10692;DHT22;5396;50.950;6.988;2023-05-07T11:01:50;23.10;99.90
10692;DHT22;5396;50.950;6.988;2023-05-07T11:04:17;23.50;99.90
10692;DHT22;5396;50.950;6.988;2023-05-07T11:15:07;24.80;99.90
10692;DHT22;5396;50.950;6.988;2023-05-07T11:17:34;25.00;99.90
10692;DHT22;5396;50.950;6.988;2023-05-07T11:20:01;25.10;99.90
10692;DHT22;5396;50.950;6.988;2023-05-07T11:24:59;24.80;99.90
10692;DHT22;5396;50.950;6.988;2023-05-07T11:27:26;25.00;99.90
10692;DHT22;5396;50.950;6.988;2023-05-07T11:29:52;25.10;99.90
10692;DHT22;5396;50.950;6.988;2023-05-07T11:32:25;25.30;99.90
10692;DHT22;5396;50.950;6.988;2023-05-07T11:34:52;25.20;99.90
10692;DHT22;5396;50.950;6.988;2023-05-07T11:37:18;25.30;99.90
10692;DHT22;5396;50.950;6.988;2023-05-07T11:39:44;24.80;99.90
10692;DHT22;5396;50.950;6.988;2023-05-07T11:42:33;24.70;99.90
10692;DHT22;5396;50.950;6.988;2023-05-07T11:45:00;24.20;99.90
10692;DHT22;5396;50.950;6.988;2023-05-07T11:47:25;24.00;99.90
10692;DHT22;5396;50.950;6.988;2023-05-07T11:49:53;23.90;99.90
10692;DHT22;5396;50.950;6.988;2023-05-07T11:52:21;23.70;99.90
10692;DHT22;5396;50.950;6.988;2023-05-07T11:54:53;23.40;99.90
10692;DHT22;5396;50.950;6.988;2023-05-07T11:57:20;23.40;99.90
10692;DHT22;5396;50.950;6.988;2023-05-07T11:59:46;23.20;99.90
10692;DHT22;5396;50.950;6.988;2023-05-07T12:02:15;23.10;99.90
10692;DHT22;5396;50.950;6.988;2023-05-07T12:04:41;23.10;99.90
10692;DHT22;5396;50.950;6.988;2023-05-07T12:07:16;23.20;99.90
10692;DHT22;5396;50.950;6.988;2023-05-07T12:09:42;23.20;99.90
10692;DHT22;5396;50.950;6.988;2023-05-07T12:12:08;23.20;99.90
10692;DHT22;5396;50.950;6.988;2023-05-07T12:14:40;23.20;99.90
10692;DHT22;5396;50.950;6.988;2023-05-07T12:17:07;23.20;99.90
10692;DHT22;5396;50.950;6.988;2023-05-07T12:19:34;23.20;99.90
10692;DHT22;5396;50.950;6.988;2023-05-07T12:22:00;23.20;99.90
10692;DHT22;5396;50.950;6.988;2023-05-07T12:24:26;23.10;99.90
10692;DHT22;5396;50.950;6.988;2023-05-07T12:26:52;22.90;99.90
10692;DHT22;5396;50.950;6.988;2023-05-07T12:29:21;22.90;99.90
10692;DHT22;5396;50.950;6.988;2023-05-07T12:31:48;23.00;99.90
10692;DHT22;5396;50.950;6.988;2023-05-07T12:34:15;23.10;99.90
10692;DHT22;5396;50.950;6.988;2023-05-07T12:36:41;23.20;99.90
10692;DHT22;5396;50.950;6.988;2023-05-07T12:39:07;23.30;99.90
10692;DHT22;5396;50.950;6.988;2023-05-07T12:41:52;23.10;99.90
10692;DHT22;5396;50.950;6.988;2023-05-07T12:44:18;23.00;99.90
10692;DHT22;5396;50.950;6.988;2023-05-07T12:46:44;23.00;99.90
10692;DHT22;5396;50.950;6.988;2023-05-07T12:49:12;23.00;99.90
10692;DHT22;5396;50.950;6.988;2023-05-07T12:51:37;22.90;99.90
10692;DHT22;5396;50.950;6.988;2023-05-07T12:54:03;22.90;99.90
10692;DHT22;5396;50.950;6.988;2023-05-07T12:56:31;22.80;99.90
10692;DHT22;5396;50.950;6.988;2023-05-07T12:58:59;22.60;99.90
10692;DHT22;5396;50.950;6.988;2023-05-07T13:01:29;22.50;99.90
10692;DHT22;5396;50.950;6.988;2023-05-07T13:03:55;22.50;99.90
10692;DHT22;5396;50.950;6.988;2023-05-07T13:06:21;22.50;99.90
10692;DHT22;5396;50.950;6.988;2023-05-07T13:08:46;22.40;99.90
10692;DHT22;5396;50.950;6.988;2023-05-07T13:11:13;22.50;99.90
10692;DHT22;5396;50.950;6.988;2023-05-07T13:13:41;22.40;99.90
10692;DHT22;5396;50.950;6.988;2023-05-07T13:16:09;22.40;99.90
10692;DHT22;5396;50.950;6.988;2023-05-07T13:18:36;22.40;99.90
10692;DHT22;5396;50.950;6.988;2023-05-07T13:21:01;22.40;99.90
10692;DHT22;5396;50.950;6.988;2023-05-07T13:23:28;22.40;99.90
10692;DHT22;5396;50.950;6.988;2023-05-07T13:25:53;22.40;99.90
10692;DHT22;5396;50.950;6.988;2023-05-07T13:28:20;22.50;99.90
10692;DHT22;5396;50.950;6.988;2023-05-07T13:30:46;22.50;99.90
10692;DHT22;5396;50.950;6.988;2023-05-07T13:33:13;22.50;99.90
10692;DHT22;5396;50.950;6.988;2023-05-07T13:35:38;22.60;99.90
10692;DHT22;5396;50.950;6.988;2023-05-07T13:38:04;22.70;99.90
10692;DHT22;5396;50.950;6.988;2023-05-07T13:40:30;22.80;99.90
10692;DHT22;5396;50.950;6.988;2023-05-07T13:42:57;22.80;99.90
10692;DHT22;5396;50.950;6.988;2023-05-07T13:45:24;22.60;99.90
10692;DHT22;5396;50.950;6.988;2023-05-07T13:47:51;22.50;99.90
10692;DHT22;5396;50.950;6.988;2023-05-07T13:50:17;22.50;99.90
10692;DHT22;5396;50.950;6.988;2023-05-07T13:52:45;22.40;99.90
10692;DHT22;5396;50.950;6.988;2023-05-07T13:55:23;22.40;99.90
10692;DHT22;5396;50.950;6.988;2023-05-07T13:57:58;22.30;99.90
10692;DHT22;5396;50.950;6.988;2023-05-07T14:00:25;22.20;99.90
10692;DHT22;5396;50.950;6.988;2023-05-07T14:02:51;22.00;99.90
10692;DHT22;5396;50.950;6.988;2023-05-07T14:05:19;22.00;99.90
10692;DHT22;5396;50.950;6.988;2023-05-07T14:07:45;22.00;99.90
10692;DHT22;5396;50.950;6.988;2023-05-07T14:10:10;21.90;99.90
10692;DHT22;5396;50.950;6.988;2023-05-07T14:12:36;21.80;99.90
10692;DHT22;5396;50.950;6.988;2023-05-07T14:15:03;21.80;99.90
10692;DHT22;5396;50.950;6.988;2023-05-07T14:17:29;21.90;99.90
10692;DHT22;5396;50.950;6.988;2023-05-07T14:19:54;21.90;99.90
10692;DHT22;5396;50.950;6.988;2023-05-07T14:22:21;21.90;99.90
10692;DHT22;5396;50.950;6.988;2023-05-07T14:24:47;21.80;99.90
10692;DHT22;5396;50.950;6.988;2023-05-07T14:27:13;21.80;99.90
10692;DHT22;5396;50.950;6.988;2023-05-07T14:29:39;22.00;99.90
10692;DHT22;5396;50.950;6.988;2023-05-07T14:32:05;22.10;99.90
10692;DHT22;5396;50.950;6.988;2023-05-07T14:34:31;22.20;99.90
10692;DHT22;5396;50.950;6.988;2023-05-07T14:36:57;22.40;99.90
10692;DHT22;5396;50.950;6.988;2023-05-07T14:39:22;22.60;99.90
10692;DHT22;5396;50.950;6.988;2023-05-07T14:41:48;22.80;99.90
10692;DHT22;5396;50.950;6.988;2023-05-07T14:44:14;22.90;99.90
10692;DHT22;5396;50.950;6.988;2023-05-07T14:46:39;22.50;99.90
10692;DHT22;5396;50.950;6.988;2023-05-07T14:49:05;22.20;99.90
10692;DHT22;5396;50.950;6.988;2023-05-07T14:51:31;22.10;99.90
10692;DHT22;5396;50.950;6.988;2023-05-07T14:53:56;22.00;99.90
10692;DHT22;5396;50.950;6.988;2023-05-07T14:56:22;22.10;99.90
10692;DHT22;5396;50.950;6.988;2023-05-07T14:58:48;22.10;99.90
10692;DHT22;5396;50.950;6.988;2023-05-07T15:01:16;22.00;99.90
10692;DHT22;5396;50.950;6.988;2023-05-07T15:03:42;21.90;99.90
10692;DHT22;5396;50.950;6.988;2023-05-07T15:06:07;21.80;99.90
10692;DHT22;5396;50.950;6.988;2023-05-07T15:08:33;21.60;99.90
10692;DHT22;5396;50.950;6.988;2023-05-07T15:10:59;21.50;99.90
10692;DHT22;5396;50.950;6.988;2023-05-07T15:13:24;21.20;99.90
10692;DHT22;5396;50.950;6.988;2023-05-07T15:15:50;21.10;99.90
10692;DHT22;5396;50.950;6.988;2023-05-07T15:18:16;20.90;99.90
10692;DHT22;5396;50.950;6.988;2023-05-07T15:20:42;20.90;99.90
10692;DHT22;5396;50.950;6.988;2023-05-07T15:23:08;20.70;99.90
10692;DHT22;5396;50.950;6.988;2023-05-07T15:25:40;20.80;99.90
10692;DHT22;5396;50.950;6.988;2023-05-07T15:28:06;20.80;99.90
10692;DHT22;5396;50.950;6.988;2023-05-07T15:30:32;20.90;99.90
10692;DHT22;5396;50.950;6.988;2023-05-07T15:32:58;20.90;99.90
10692;DHT22;5396;50.950;6.988;2023-05-07T15:35:24;21.00;99.90
10692;DHT22;5396;50.950;6.988;2023-05-07T15:37:51;21.00;99.90
10692;DHT22;5396;50.950;6.988;2023-05-07T15:40:16;21.00;99.90
10692;DHT22;5396;50.950;6.988;2023-05-07T15:42:46;21.10;99.90
10692;DHT22;5396;50.950;6.988;2023-05-07T15:45:12;21.20;99.90
10692;DHT22;5396;50.950;6.988;2023-05-07T15:47:38;21.20;99.90
10692;DHT22;5396;50.950;6.988;2023-05-07T15:50:04;21.00;99.90
10692;DHT22;5396;50.950;6.988;2023-05-07T15:52:29;20.80;99.90
10692;DHT22;5396;50.950;6.988;2023-05-07T15:54:56;20.70;99.90
10692;DHT22;5396;50.950;6.988;2023-05-07T15:57:22;20.70;99.90
10692;DHT22;5396;50.950;6.988;2023-05-07T15:59:48;20.60;99.90